sensor_id;sensor_type;location;lat;lon;timestamp;P1;durP1;ratioP1;P2;durP2;ratioP2
4096;SDS011;2062;50.694;7.246;2024-03-23T00:54:38;13.07;;;4.90;;
4096;SDS011;2062;50.694;7.246;2024-03-23T00:57:05;10.33;;;4.07;;
4096;SDS011;2062;50.694;7.246;2024-03-23T00:59:31;11.85;;;4.32;;
4096;SDS011;2062;50.694;7.246;2024-03-23T01:01:58;10.95;;;4.28;;
4096;SDS011;2062;50.694;7.246;2024-03-23T01:04:24;11.27;;;4.50;;
4096;SDS011;2062;50.694;7.246;2024-03-23T01:06:50;12.10;;;4.90;;
4096;SDS011;2062;50.694;7.246;2024-03-23T01:09:16;11.60;;;4.85;;
4096;SDS011;2062;50.694;7.246;2024-03-23T01:11:44;13.23;;;4.85;;
4096;SDS011;2062;50.694;7.246;2024-03-23T01:14:10;12.67;;;4.97;;
4096;SDS011;2062;50.694;7.246;2024-03-23T01:16:37;11.45;;;5.68;;
4096;SDS011;2062;50.694;7.246;2024-03-23T01:19:03;12.52;;;4.68;;
4096;SDS011;2062;50.694;7.246;2024-03-23T01:21:30;11.98;;;4.85;;
4096;SDS011;2062;50.694;7.246;2024-03-23T01:23:56;11.17;;;5.37;;
4096;SDS011;2062;50.694;7.246;2024-03-23T01:26:23;12.50;;;5.65;;
4096;SDS011;2062;50.694;7.246;2024-03-23T01:28:50;16.38;;;6.40;;
4096;SDS011;2062;50.694;7.246;2024-03-23T01:31:17;14.45;;;6.00;;
4096;SDS011;2062;50.694;7.246;2024-03-23T01:33:43;13.90;;;6.77;;
4096;SDS011;2062;50.694;7.246;2024-03-23T01:36:10;14.07;;;6.65;;
4096;SDS011;2062;50.694;7.246;2024-03-23T01:38:35;12.70;;;5.77;;
4096;SDS011;2062;50.694;7.246;2024-03-23T01:41:02;16.43;;;6.07;;
4096;SDS011;2062;50.694;7.246;2024-03-23T01:43:28;16.65;;;6.57;;
4096;SDS011;2062;50.694;7.246;2024-03-23T01:45:56;15.68;;;6.28;;
4096;SDS011;2062;50.694;7.246;2024-03-23T01:48:22;15.35;;;6.65;;
4096;SDS011;2062;50.694;7.246;2024-03-23T01:50:49;13.20;;;5.97;;
4096;SDS011;2062;50.694;7.246;2024-03-23T01:53:15;13.45;;;6.15;;
4096;SDS011;2062;50.694;7.246;2024-03-23T01:55:44;16.40;;;6.57;;
4096;SDS011;2062;50.694;7.246;2024-03-23T01:58:10;15.07;;;6.03;;
4096;SDS011;2062;50.694;7.246;2024-03-23T02:00:38;12.77;;;5.40;;
4096;SDS011;2062;50.694;7.246;2024-03-23T02:05:50;10.80;;;4.90;;
4096;SDS011;2062;50.694;7.246;2024-03-23T02:08:17;16.10;;;5.43;;
4096;SDS011;2062;50.694;7.246;2024-03-23T02:10:46;11.03;;;4.83;;
4096;SDS011;2062;50.694;7.246;2024-03-23T02:13:13;14.05;;;5.20;;
4096;SDS011;2062;50.694;7.246;2024-03-23T02:15:41;15.10;;;5.28;;
4096;SDS011;2062;50.694;7.246;2024-03-23T02:18:07;15.07;;;5.07;;
4096;SDS011;2062;50.694;7.246;2024-03-23T02:20:36;11.60;;;4.20;;
4096;SDS011;2062;50.694;7.246;2024-03-23T02:23:03;11.73;;;4.67;;
4096;SDS011;2062;50.694;7.246;2024-03-23T02:25:31;9.05;;;3.60;;
4096;SDS011;2062;50.694;7.246;2024-03-23T02:27:57;10.13;;;3.50;;
4096;SDS011;2062;50.694;7.246;2024-03-23T02:30:24;9.38;;;3.80;;
4096;SDS011;2062;50.694;7.246;2024-03-23T02:32:50;8.57;;;3.30;;
4096;SDS011;2062;50.694;7.246;2024-03-23T02:35:17;9.00;;;2.30;;
4096;SDS011;2062;50.694;7.246;2024-03-23T02:37:43;8.95;;;2.67;;
4096;SDS011;2062;50.694;7.246;2024-03-23T02:40:11;6.80;;;2.28;;
4096;SDS011;2062;50.694;7.246;2024-03-23T02:42:36;5.83;;;1.90;;
4096;SDS011;2062;50.694;7.246;2024-03-23T02:45:04;5.70;;;1.80;;
4096;SDS011;2062;50.694;7.246;2024-03-23T02:47:30;6.50;;;1.83;;
4096;SDS011;2062;50.694;7.246;2024-03-23T02:49:57;5.10;;;1.50;;
4096;SDS011;2062;50.694;7.246;2024-03-23T02:52:23;5.30;;;1.80;;
4096;SDS011;2062;50.694;7.246;2024-03-23T02:54:50;7.57;;;2.33;;
4096;SDS011;2062;50.694;7.246;2024-03-23T02:57:17;8.90;;;2.75;;
4096;SDS011;2062;50.694;7.246;2024-03-23T02:59:44;8.05;;;2.50;;
4096;SDS011;2062;50.694;7.246;2024-03-23T03:02:09;7.57;;;2.33;;
4096;SDS011;2062;50.694;7.246;2024-03-23T03:04:37;7.28;;;2.60;;
4096;SDS011;2062;50.694;7.246;2024-03-23T03:07:03;10.30;;;3.60;;
4096;SDS011;2062;50.694;7.246;2024-03-23T03:09:30;8.55;;;3.33;;
4096;SDS011;2062;50.694;7.246;2024-03-23T03:11:55;8.13;;;3.10;;
4096;SDS011;2062;50.694;7.246;2024-03-23T03:14:24;10.45;;;3.53;;
4096;SDS011;2062;50.694;7.246;2024-03-23T03:16:49;10.60;;;3.55;;
4096;SDS011;2062;50.694;7.246;2024-03-23T03:19:16;7.95;;;3.30;;
4096;SDS011;2062;50.694;7.246;2024-03-23T03:21:42;7.30;;;2.77;;
4096;SDS011;2062;50.694;7.246;2024-03-23T03:24:09;5.88;;;2.45;;
4096;SDS011;2062;50.694;7.246;2024-03-23T03:26:35;12.98;;;2.40;;
4096;SDS011;2062;50.694;7.246;2024-03-23T03:29:02;7.30;;;2.28;;
4096;SDS011;2062;50.694;7.246;2024-03-23T03:31:29;6.53;;;2.10;;
4096;SDS011;2062;50.694;7.246;2024-03-23T03:33:56;6.40;;;2.03;;
4096;SDS011;2062;50.694;7.246;2024-03-23T03:36:22;8.45;;;2.05;;
4096;SDS011;2062;50.694;7.246;2024-03-23T03:38:48;7.73;;;2.70;;
4096;SDS011;2062;50.694;7.246;2024-03-23T03:41:14;9.70;;;3.00;;
4096;SDS011;2062;50.694;7.246;2024-03-23T03:43:41;8.80;;;2.80;;
4096;SDS011;2062;50.694;7.246;2024-03-23T03:46:07;9.03;;;2.60;;
4096;SDS011;2062;50.694;7.246;2024-03-23T03:48:36;8.40;;;2.50;;
4096;SDS011;2062;50.694;7.246;2024-03-23T03:51:02;7.88;;;2.20;;
4096;SDS011;2062;50.694;7.246;2024-03-23T03:53:29;5.63;;;1.98;;
4096;SDS011;2062;50.694;7.246;2024-03-23T03:55:55;6.45;;;1.63;;
4096;SDS011;2062;50.694;7.246;2024-03-23T03:58:22;8.33;;;1.77;;
4096;SDS011;2062;50.694;7.246;2024-03-23T04:00:48;7.97;;;1.95;;
4096;SDS011;2062;50.694;7.246;2024-03-23T04:03:15;6.20;;;1.70;;
4096;SDS011;2062;50.694;7.246;2024-03-23T04:05:42;7.10;;;1.70;;
4096;SDS011;2062;50.694;7.246;2024-03-23T04:08:09;8.55;;;1.80;;
4096;SDS011;2062;50.694;7.246;2024-03-23T04:10:35;8.77;;;1.58;;
4096;SDS011;2062;50.694;7.246;2024-03-23T04:13:01;8.73;;;1.83;;
4096;SDS011;2062;50.694;7.246;2024-03-23T04:15:29;7.83;;;1.63;;
4096;SDS011;2062;50.694;7.246;2024-03-23T04:17:56;8.60;;;1.80;;
4096;SDS011;2062;50.694;7.246;2024-03-23T04:20:22;8.93;;;2.00;;
4096;SDS011;2062;50.694;7.246;2024-03-23T04:22:50;7.63;;;1.63;;
4096;SDS011;2062;50.694;7.246;2024-03-23T04:25:16;8.73;;;1.90;;
4096;SDS011;2062;50.694;7.246;2024-03-23T04:27:44;6.30;;;1.52;;
4096;SDS011;2062;50.694;7.246;2024-03-23T04:30:11;7.20;;;1.70;;
4096;SDS011;2062;50.694;7.246;2024-03-23T04:32:39;6.78;;;1.67;;
4096;SDS011;2062;50.694;7.246;2024-03-23T04:35:05;8.68;;;1.88;;
4096;SDS011;2062;50.694;7.246;2024-03-23T04:37:34;10.20;;;1.87;;
4096;SDS011;2062;50.694;7.246;2024-03-23T04:40:03;8.15;;;1.88;;
4096;SDS011;2062;50.694;7.246;2024-03-23T04:42:30;6.07;;;1.80;;
4096;SDS011;2062;50.694;7.246;2024-03-23T04:44:57;8.02;;;1.80;;
4096;SDS011;2062;50.694;7.246;2024-03-23T04:47:24;10.00;;;1.90;;
4096;SDS011;2062;50.694;7.246;2024-03-23T04:49:51;8.17;;;1.97;;
4096;SDS011;2062;50.694;7.246;2024-03-23T04:52:18;9.48;;;2.05;;
4096;SDS011;2062;50.694;7.246;2024-03-23T04:54:45;7.82;;;2.10;;
4096;SDS011;2062;50.694;7.246;2024-03-23T04:57:13;7.82;;;1.80;;
4096;SDS011;2062;50.694;7.246;2024-03-23T04:59:41;8.68;;;1.85;;
4096;SDS011;2062;50.694;7.246;2024-03-23T05:02:07;8.50;;;2.30;;
4096;SDS011;2062;50.694;7.246;2024-03-23T05:04:35;9.90;;;1.92;;
4096;SDS011;2062;50.694;7.246;2024-03-23T05:07:02;8.63;;;2.00;;
4096;SDS011;2062;50.694;7.246;2024-03-23T05:09:29;9.52;;;2.22;;
4096;SDS011;2062;50.694;7.246;2024-03-23T05:11:55;13.37;;;2.27;;
4096;SDS011;2062;50.694;7.246;2024-03-23T05:14:23;10.57;;;2.45;;
4096;SDS011;2062;50.694;7.246;2024-03-23T05:16:49;9.30;;;2.38;;
4096;SDS011;2062;50.694;7.246;2024-03-23T05:19:15;8.68;;;2.10;;
4096;SDS011;2062;50.694;7.246;2024-03-23T05:21:41;10.10;;;2.10;;
4096;SDS011;2062;50.694;7.246;2024-03-23T05:24:08;9.23;;;2.20;;
4096;SDS011;2062;50.694;7.246;2024-03-23T05:26:34;10.00;;;2.13;;
4096;SDS011;2062;50.694;7.246;2024-03-23T05:29:01;9.67;;;2.17;;
4096;SDS011;2062;50.694;7.246;2024-03-23T05:31:28;10.85;;;2.15;;
4096;SDS011;2062;50.694;7.246;2024-03-23T05:33:56;7.78;;;1.80;;
4096;SDS011;2062;50.694;7.246;2024-03-23T05:36:22;9.18;;;1.90;;
4096;SDS011;2062;50.694;7.246;2024-03-23T05:38:49;9.20;;;1.60;;
4096;SDS011;2062;50.694;7.246;2024-03-23T05:41:15;9.82;;;1.67;;
4096;SDS011;2062;50.694;7.246;2024-03-23T05:43:42;11.20;;;2.10;;
4096;SDS011;2062;50.694;7.246;2024-03-23T05:46:08;8.00;;;1.30;;
4096;SDS011;2062;50.694;7.246;2024-03-23T05:48:36;7.83;;;1.40;;
4096;SDS011;2062;50.694;7.246;2024-03-23T05:51:02;7.10;;;1.55;;
4096;SDS011;2062;50.694;7.246;2024-03-23T05:53:29;7.13;;;1.80;;
4096;SDS011;2062;50.694;7.246;2024-03-23T05:56:00;9.83;;;2.00;;
4096;SDS011;2062;50.694;7.246;2024-03-23T05:58:29;11.97;;;1.80;;
4096;SDS011;2062;50.694;7.246;2024-03-23T06:00:59;7.03;;;1.48;;
4096;SDS011;2062;50.694;7.246;2024-03-23T06:03:27;8.10;;;1.38;;
4096;SDS011;2062;50.694;7.246;2024-03-23T06:05:54;8.75;;;1.70;;
4096;SDS011;2062;50.694;7.246;2024-03-23T06:08:21;5.68;;;1.60;;
4096;SDS011;2062;50.694;7.246;2024-03-23T06:10:48;9.23;;;2.03;;
4096;SDS011;2062;50.694;7.246;2024-03-23T06:13:15;7.00;;;1.42;;
4096;SDS011;2062;50.694;7.246;2024-03-23T06:15:42;12.00;;;1.58;;
4096;SDS011;2062;50.694;7.246;2024-03-23T06:18:08;7.00;;;1.30;;
4096;SDS011;2062;50.694;7.246;2024-03-23T06:20:34;6.93;;;0.80;;
4096;SDS011;2062;50.694;7.246;2024-03-23T06:23:03;4.18;;;1.00;;
4096;SDS011;2062;50.694;7.246;2024-03-23T06:25:30;10.13;;;1.15;;
4096;SDS011;2062;50.694;7.246;2024-03-23T06:27:55;7.67;;;1.20;;
4096;SDS011;2062;50.694;7.246;2024-03-23T06:30:23;8.17;;;1.57;;
4096;SDS011;2062;50.694;7.246;2024-03-23T06:32:49;8.00;;;1.33;;
4096;SDS011;2062;50.694;7.246;2024-03-23T06:35:16;6.47;;;1.27;;
4096;SDS011;2062;50.694;7.246;2024-03-23T06:37:41;10.13;;;1.40;;
4096;SDS011;2062;50.694;7.246;2024-03-23T06:40:10;7.75;;;1.30;;
4096;SDS011;2062;50.694;7.246;2024-03-23T06:42:36;9.98;;;1.70;;
4096;SDS011;2062;50.694;7.246;2024-03-23T06:45:03;7.80;;;1.45;;
4096;SDS011;2062;50.694;7.246;2024-03-23T06:47:30;8.70;;;1.40;;
4096;SDS011;2062;50.694;7.246;2024-03-23T06:49:56;7.67;;;1.40;;
4096;SDS011;2062;50.694;7.246;2024-03-23T06:52:23;10.55;;;1.80;;
4096;SDS011;2062;50.694;7.246;2024-03-23T06:54:49;9.55;;;1.55;;
4096;SDS011;2062;50.694;7.246;2024-03-23T06:57:17;5.55;;;1.40;;
4096;SDS011;2062;50.694;7.246;2024-03-23T06:59:43;9.77;;;1.83;;
4096;SDS011;2062;50.694;7.246;2024-03-23T07:02:09;7.93;;;1.50;;
4096;SDS011;2062;50.694;7.246;2024-03-23T07:04:35;9.48;;;1.60;;
4096;SDS011;2062;50.694;7.246;2024-03-23T07:07:04;8.43;;;1.63;;
4096;SDS011;2062;50.694;7.246;2024-03-23T07:09:30;6.68;;;1.55;;
4096;SDS011;2062;50.694;7.246;2024-03-23T07:11:57;9.23;;;1.50;;
4096;SDS011;2062;50.694;7.246;2024-03-23T07:14:24;11.88;;;1.90;;
4096;SDS011;2062;50.694;7.246;2024-03-23T07:16:51;9.15;;;1.58;;
4096;SDS011;2062;50.694;7.246;2024-03-23T07:19:17;11.67;;;2.17;;
4096;SDS011;2062;50.694;7.246;2024-03-23T07:21:44;7.93;;;1.73;;
4096;SDS011;2062;50.694;7.246;2024-03-23T07:24:10;9.20;;;1.90;;
4096;SDS011;2062;50.694;7.246;2024-03-23T07:26:37;8.55;;;2.25;;
4096;SDS011;2062;50.694;7.246;2024-03-23T07:29:03;8.73;;;1.33;;
4096;SDS011;2062;50.694;7.246;2024-03-23T07:31:32;7.75;;;1.60;;
4096;SDS011;2062;50.694;7.246;2024-03-23T07:33:57;8.23;;;2.00;;
4096;SDS011;2062;50.694;7.246;2024-03-23T07:36:24;11.50;;;2.00;;
4096;SDS011;2062;50.694;7.246;2024-03-23T07:38:50;5.75;;;1.83;;
4096;SDS011;2062;50.694;7.246;2024-03-23T07:41:19;12.47;;;2.10;;
4096;SDS011;2062;50.694;7.246;2024-03-23T07:43:46;8.40;;;1.80;;
4096;SDS011;2062;50.694;7.246;2024-03-23T07:46:14;10.57;;;2.28;;
4096;SDS011;2062;50.694;7.246;2024-03-23T07:48:41;11.55;;;2.40;;
4096;SDS011;2062;50.694;7.246;2024-03-23T07:51:09;9.27;;;2.40;;
4096;SDS011;2062;50.694;7.246;2024-03-23T07:53:35;11.43;;;2.50;;
4096;SDS011;2062;50.694;7.246;2024-03-23T07:56:05;14.32;;;2.90;;
4096;SDS011;2062;50.694;7.246;2024-03-23T07:58:32;8.77;;;2.45;;
4096;SDS011;2062;50.694;7.246;2024-03-23T08:01:03;10.00;;;2.58;;
4096;SDS011;2062;50.694;7.246;2024-03-23T08:03:30;11.65;;;2.30;;
4096;SDS011;2062;50.694;7.246;2024-03-23T08:05:58;11.03;;;3.00;;
4096;SDS011;2062;50.694;7.246;2024-03-23T08:08:32;9.75;;;2.63;;
4096;SDS011;2062;50.694;7.246;2024-03-23T08:10:59;9.95;;;2.63;;
4096;SDS011;2062;50.694;7.246;2024-03-23T08:13:24;11.95;;;2.80;;
4096;SDS011;2062;50.694;7.246;2024-03-23T08:15:53;11.57;;;2.60;;
4096;SDS011;2062;50.694;7.246;2024-03-23T08:18:21;7.03;;;2.40;;
4096;SDS011;2062;50.694;7.246;2024-03-23T08:20:54;10.65;;;2.67;;
4096;SDS011;2062;50.694;7.246;2024-03-23T08:23:22;12.77;;;2.63;;
4096;SDS011;2062;50.694;7.246;2024-03-23T08:25:49;11.45;;;2.92;;
4096;SDS011;2062;50.694;7.246;2024-03-23T08:28:15;6.43;;;1.97;;
4096;SDS011;2062;50.694;7.246;2024-03-23T08:30:42;6.97;;;1.30;;
4096;SDS011;2062;50.694;7.246;2024-03-23T08:33:07;7.32;;;1.30;;
4096;SDS011;2062;50.694;7.246;2024-03-23T08:35:34;6.18;;;1.10;;
4096;SDS011;2062;50.694;7.246;2024-03-23T08:38:00;5.70;;;1.20;;
4096;SDS011;2062;50.694;7.246;2024-03-23T08:40:28;5.55;;;1.10;;
4096;SDS011;2062;50.694;7.246;2024-03-23T08:42:54;5.38;;;0.70;;
4096;SDS011;2062;50.694;7.246;2024-03-23T08:45:21;7.30;;;1.13;;
4096;SDS011;2062;50.694;7.246;2024-03-23T08:47:46;6.93;;;1.00;;
4096;SDS011;2062;50.694;7.246;2024-03-23T08:50:13;5.13;;;0.98;;
4096;SDS011;2062;50.694;7.246;2024-03-23T08:52:39;4.15;;;0.93;;
4096;SDS011;2062;50.694;7.246;2024-03-23T08:55:06;5.65;;;0.90;;
4096;SDS011;2062;50.694;7.246;2024-03-23T08:57:34;4.25;;;0.90;;
4096;SDS011;2062;50.694;7.246;2024-03-23T09:00:01;5.27;;;0.77;;
4096;SDS011;2062;50.694;7.246;2024-03-23T09:02:27;5.60;;;0.90;;
4096;SDS011;2062;50.694;7.246;2024-03-23T09:04:54;4.97;;;1.08;;
4096;SDS011;2062;50.694;7.246;2024-03-23T09:07:20;4.33;;;1.10;;
4096;SDS011;2062;50.694;7.246;2024-03-23T09:09:47;8.10;;;1.53;;
4096;SDS011;2062;50.694;7.246;2024-03-23T09:12:12;7.03;;;1.40;;
4096;SDS011;2062;50.694;7.246;2024-03-23T09:14:41;4.18;;;1.10;;
4096;SDS011;2062;50.694;7.246;2024-03-23T09:17:06;7.20;;;1.30;;
4096;SDS011;2062;50.694;7.246;2024-03-23T09:19:34;7.87;;;1.70;;
4096;SDS011;2062;50.694;7.246;2024-03-23T09:22:00;6.68;;;1.38;;
4096;SDS011;2062;50.694;7.246;2024-03-23T09:24:27;5.90;;;1.42;;
4096;SDS011;2062;50.694;7.246;2024-03-23T09:26:53;5.17;;;1.70;;
4096;SDS011;2062;50.694;7.246;2024-03-23T09:29:19;6.28;;;1.70;;
4096;SDS011;2062;50.694;7.246;2024-03-23T09:31:47;8.23;;;1.95;;
4096;SDS011;2062;50.694;7.246;2024-03-23T09:34:14;8.52;;;2.35;;
4096;SDS011;2062;50.694;7.246;2024-03-23T09:36:40;8.85;;;2.65;;
4096;SDS011;2062;50.694;7.246;2024-03-23T09:39:07;9.47;;;3.10;;
4096;SDS011;2062;50.694;7.246;2024-03-23T09:41:34;10.93;;;2.97;;
4096;SDS011;2062;50.694;7.246;2024-03-23T09:44:01;6.40;;;2.42;;
4096;SDS011;2062;50.694;7.246;2024-03-23T09:46:27;11.18;;;2.80;;
4096;SDS011;2062;50.694;7.246;2024-03-23T09:48:56;10.95;;;2.50;;
4096;SDS011;2062;50.694;7.246;2024-03-23T09:51:22;9.37;;;2.27;;
4096;SDS011;2062;50.694;7.246;2024-03-23T09:53:49;10.45;;;2.17;;
4096;SDS011;2062;50.694;7.246;2024-03-23T09:56:17;9.82;;;1.92;;
4096;SDS011;2062;50.694;7.246;2024-03-23T09:58:44;8.32;;;1.70;;
4096;SDS011;2062;50.694;7.246;2024-03-23T10:01:09;6.50;;;1.50;;
4096;SDS011;2062;50.694;7.246;2024-03-23T10:03:42;8.68;;;1.45;;
4096;SDS011;2062;50.694;7.246;2024-03-23T10:06:09;6.43;;;1.35;;
4096;SDS011;2062;50.694;7.246;2024-03-23T10:08:36;8.48;;;1.60;;
4096;SDS011;2062;50.694;7.246;2024-03-23T10:11:11;8.50;;;1.73;;
4096;SDS011;2062;50.694;7.246;2024-03-23T10:13:40;7.78;;;1.58;;
4096;SDS011;2062;50.694;7.246;2024-03-23T10:16:07;8.07;;;1.92;;
4096;SDS011;2062;50.694;7.246;2024-03-23T10:18:36;6.55;;;1.60;;
4096;SDS011;2062;50.694;7.246;2024-03-23T10:21:06;8.15;;;1.65;;
4096;SDS011;2062;50.694;7.246;2024-03-23T10:23:37;7.43;;;1.47;;
4096;SDS011;2062;50.694;7.246;2024-03-23T10:28:51;6.28;;;1.30;;
4096;SDS011;2062;50.694;7.246;2024-03-23T10:31:17;6.72;;;1.25;;
4096;SDS011;2062;50.694;7.246;2024-03-23T10:33:45;5.43;;;1.10;;
4096;SDS011;2062;50.694;7.246;2024-03-23T10:36:11;5.67;;;1.30;;
4096;SDS011;2062;50.694;7.246;2024-03-23T10:38:41;6.63;;;1.20;;
4096;SDS011;2062;50.694;7.246;2024-03-23T10:41:08;6.32;;;1.48;;
4096;SDS011;2062;50.694;7.246;2024-03-23T10:43:36;4.65;;;1.20;;
4096;SDS011;2062;50.694;7.246;2024-03-23T10:46:02;4.90;;;1.33;;
4096;SDS011;2062;50.694;7.246;2024-03-23T10:48:29;6.13;;;1.03;;
4096;SDS011;2062;50.694;7.246;2024-03-23T10:50:56;3.85;;;0.70;;
4096;SDS011;2062;50.694;7.246;2024-03-23T10:53:25;6.72;;;0.88;;
4096;SDS011;2062;50.694;7.246;2024-03-23T10:55:53;2.42;;;0.40;;
4096;SDS011;2062;50.694;7.246;2024-03-23T10:58:22;3.53;;;0.40;;
4096;SDS011;2062;50.694;7.246;2024-03-23T11:00:51;2.70;;;0.40;;
4096;SDS011;2062;50.694;7.246;2024-03-23T11:03:32;3.95;;;0.68;;
4096;SDS011;2062;50.694;7.246;2024-03-23T11:05:59;1.70;;;0.30;;
4096;SDS011;2062;50.694;7.246;2024-03-23T11:08:31;1.83;;;0.25;;
4096;SDS011;2062;50.694;7.246;2024-03-23T11:13:48;2.00;;;0.37;;
4096;SDS011;2062;50.694;7.246;2024-03-23T11:16:15;4.13;;;0.50;;
4096;SDS011;2062;50.694;7.246;2024-03-23T11:18:43;2.00;;;0.30;;
4096;SDS011;2062;50.694;7.246;2024-03-23T11:21:09;3.00;;;0.20;;
4096;SDS011;2062;50.694;7.246;2024-03-23T11:26:41;2.40;;;0.40;;
4096;SDS011;2062;50.694;7.246;2024-03-23T11:29:09;3.80;;;0.65;;
4096;SDS011;2062;50.694;7.246;2024-03-23T11:31:36;4.43;;;1.00;;
4096;SDS011;2062;50.694;7.246;2024-03-23T11:34:03;4.50;;;0.90;;
4096;SDS011;2062;50.694;7.246;2024-03-23T11:36:29;5.20;;;1.08;;
4096;SDS011;2062;50.694;7.246;2024-03-23T11:38:56;3.93;;;1.10;;
4096;SDS011;2062;50.694;7.246;2024-03-23T11:41:22;3.97;;;1.23;;
4096;SDS011;2062;50.694;7.246;2024-03-23T11:43:50;6.72;;;1.40;;
4096;SDS011;2062;50.694;7.246;2024-03-23T11:46:21;5.25;;;1.20;;
4096;SDS011;2062;50.694;7.246;2024-03-23T11:48:49;3.97;;;1.00;;
4096;SDS011;2062;50.694;7.246;2024-03-23T11:51:15;3.67;;;1.00;;
4096;SDS011;2062;50.694;7.246;2024-03-23T11:53:43;5.15;;;0.80;;
4096;SDS011;2062;50.694;7.246;2024-03-23T11:56:08;4.13;;;0.88;;
4096;SDS011;2062;50.694;7.246;2024-03-23T11:58:35;4.90;;;0.70;;
4096;SDS011;2062;50.694;7.246;2024-03-23T12:01:03;3.88;;;0.80;;
4096;SDS011;2062;50.694;7.246;2024-03-23T12:03:31;6.82;;;1.08;;
4096;SDS011;2062;50.694;7.246;2024-03-23T12:05:58;7.90;;;1.38;;
4096;SDS011;2062;50.694;7.246;2024-03-23T12:08:29;4.60;;;1.10;;
4096;SDS011;2062;50.694;7.246;2024-03-23T12:11:04;6.07;;;1.20;;
4096;SDS011;2062;50.694;7.246;2024-03-23T12:13:32;7.15;;;1.40;;
4096;SDS011;2062;50.694;7.246;2024-03-23T12:16:09;6.47;;;1.15;;
4096;SDS011;2062;50.694;7.246;2024-03-23T12:18:38;6.50;;;1.20;;
4096;SDS011;2062;50.694;7.246;2024-03-23T12:21:05;4.70;;;1.00;;
4096;SDS011;2062;50.694;7.246;2024-03-23T12:23:33;6.82;;;1.35;;
4096;SDS011;2062;50.694;7.246;2024-03-23T12:25:59;4.47;;;1.30;;
4096;SDS011;2062;50.694;7.246;2024-03-23T12:28:26;6.22;;;1.40;;
4096;SDS011;2062;50.694;7.246;2024-03-23T12:30:52;5.80;;;1.70;;
4096;SDS011;2062;50.694;7.246;2024-03-23T12:33:21;5.75;;;1.45;;
4096;SDS011;2062;50.694;7.246;2024-03-23T12:35:46;4.30;;;1.50;;
4096;SDS011;2062;50.694;7.246;2024-03-23T12:38:13;6.38;;;1.70;;
4096;SDS011;2062;50.694;7.246;2024-03-23T12:40:39;6.90;;;1.60;;
4096;SDS011;2062;50.694;7.246;2024-03-23T12:43:06;5.40;;;1.48;;
4096;SDS011;2062;50.694;7.246;2024-03-23T12:45:32;4.88;;;1.23;;
4096;SDS011;2062;50.694;7.246;2024-03-23T12:47:59;4.55;;;1.13;;
4096;SDS011;2062;50.694;7.246;2024-03-23T12:50:26;5.37;;;1.40;;
4096;SDS011;2062;50.694;7.246;2024-03-23T12:52:53;4.82;;;1.40;;
4096;SDS011;2062;50.694;7.246;2024-03-23T12:55:19;6.68;;;1.58;;
4096;SDS011;2062;50.694;7.246;2024-03-23T12:57:46;5.07;;;1.52;;
4096;SDS011;2062;50.694;7.246;2024-03-23T13:00:13;4.37;;;1.33;;
4096;SDS011;2062;50.694;7.246;2024-03-23T13:02:40;6.15;;;1.85;;
4096;SDS011;2062;50.694;7.246;2024-03-23T13:05:06;10.52;;;2.28;;
4096;SDS011;2062;50.694;7.246;2024-03-23T13:07:36;4.00;;;1.20;;
4096;SDS011;2062;50.694;7.246;2024-03-23T13:10:03;4.97;;;1.10;;
4096;SDS011;2062;50.694;7.246;2024-03-23T13:12:31;4.30;;;0.90;;
4096;SDS011;2062;50.694;7.246;2024-03-23T13:14:57;4.40;;;0.98;;
4096;SDS011;2062;50.694;7.246;2024-03-23T13:17:24;3.83;;;0.70;;
4096;SDS011;2062;50.694;7.246;2024-03-23T13:19:51;3.53;;;0.70;;
4096;SDS011;2062;50.694;7.246;2024-03-23T13:22:18;4.30;;;0.70;;
4096;SDS011;2062;50.694;7.246;2024-03-23T13:24:45;4.80;;;0.70;;
4096;SDS011;2062;50.694;7.246;2024-03-23T13:27:12;3.15;;;0.75;;
4096;SDS011;2062;50.694;7.246;2024-03-23T13:29:38;3.00;;;0.60;;
4096;SDS011;2062;50.694;7.246;2024-03-23T13:32:05;3.72;;;0.70;;
4096;SDS011;2062;50.694;7.246;2024-03-23T13:34:31;2.85;;;0.65;;
4096;SDS011;2062;50.694;7.246;2024-03-23T13:37:00;3.97;;;0.75;;
4096;SDS011;2062;50.694;7.246;2024-03-23T13:39:26;3.23;;;0.80;;
4096;SDS011;2062;50.694;7.246;2024-03-23T13:41:54;3.30;;;0.82;;
4096;SDS011;2062;50.694;7.246;2024-03-23T13:44:20;5.25;;;0.90;;
4096;SDS011;2062;50.694;7.246;2024-03-23T13:46:48;3.28;;;0.80;;
4096;SDS011;2062;50.694;7.246;2024-03-23T13:49:19;3.40;;;0.80;;
4096;SDS011;2062;50.694;7.246;2024-03-23T13:51:51;3.28;;;0.85;;
4096;SDS011;2062;50.694;7.246;2024-03-23T13:54:17;4.13;;;0.80;;
4096;SDS011;2062;50.694;7.246;2024-03-23T13:56:44;3.58;;;0.85;;
4096;SDS011;2062;50.694;7.246;2024-03-23T13:59:11;4.17;;;1.00;;
4096;SDS011;2062;50.694;7.246;2024-03-23T14:01:38;3.97;;;0.90;;
4096;SDS011;2062;50.694;7.246;2024-03-23T14:04:04;4.55;;;1.10;;
4096;SDS011;2062;50.694;7.246;2024-03-23T14:06:31;3.63;;;1.02;;
4096;SDS011;2062;50.694;7.246;2024-03-23T14:08:57;4.83;;;0.93;;
4096;SDS011;2062;50.694;7.246;2024-03-23T14:11:24;3.45;;;0.90;;
4096;SDS011;2062;50.694;7.246;2024-03-23T14:13:51;5.50;;;1.00;;
4096;SDS011;2062;50.694;7.246;2024-03-23T14:16:20;3.65;;;1.08;;
4096;SDS011;2062;50.694;7.246;2024-03-23T14:18:46;3.80;;;1.00;;
4096;SDS011;2062;50.694;7.246;2024-03-23T14:21:13;4.57;;;1.10;;
4096;SDS011;2062;50.694;7.246;2024-03-23T14:23:39;5.80;;;0.88;;
4096;SDS011;2062;50.694;7.246;2024-03-23T14:26:06;4.47;;;1.05;;
4096;SDS011;2062;50.694;7.246;2024-03-23T14:28:33;4.30;;;0.90;;
4096;SDS011;2062;50.694;7.246;2024-03-23T14:31:00;5.35;;;1.10;;
4096;SDS011;2062;50.694;7.246;2024-03-23T14:33:27;7.63;;;2.00;;
4096;SDS011;2062;50.694;7.246;2024-03-23T14:35:54;9.57;;;1.55;;
4096;SDS011;2062;50.694;7.246;2024-03-23T14:38:20;6.60;;;1.73;;
4096;SDS011;2062;50.694;7.246;2024-03-23T14:40:47;7.47;;;1.30;;
4096;SDS011;2062;50.694;7.246;2024-03-23T14:43:14;7.72;;;1.63;;
4096;SDS011;2062;50.694;7.246;2024-03-23T14:45:49;4.87;;;1.30;;
4096;SDS011;2062;50.694;7.246;2024-03-23T14:48:33;5.65;;;1.48;;
4096;SDS011;2062;50.694;7.246;2024-03-23T14:51:00;5.10;;;1.30;;
4096;SDS011;2062;50.694;7.246;2024-03-23T14:53:26;6.40;;;1.40;;
4096;SDS011;2062;50.694;7.246;2024-03-23T14:55:54;4.85;;;1.17;;
4096;SDS011;2062;50.694;7.246;2024-03-23T14:58:20;4.90;;;1.03;;
4096;SDS011;2062;50.694;7.246;2024-03-23T15:00:47;4.32;;;1.08;;
4096;SDS011;2062;50.694;7.246;2024-03-23T15:03:13;5.07;;;0.90;;
4096;SDS011;2062;50.694;7.246;2024-03-23T15:05:42;3.05;;;0.70;;
4096;SDS011;2062;50.694;7.246;2024-03-23T15:08:16;3.87;;;0.93;;
4096;SDS011;2062;50.694;7.246;2024-03-23T15:10:43;6.93;;;1.52;;
4096;SDS011;2062;50.694;7.246;2024-03-23T15:13:09;4.85;;;1.10;;
4096;SDS011;2062;50.694;7.246;2024-03-23T15:15:37;4.13;;;1.23;;
4096;SDS011;2062;50.694;7.246;2024-03-23T15:18:04;5.63;;;1.50;;
4096;SDS011;2062;50.694;7.246;2024-03-23T15:20:31;5.82;;;1.20;;
4096;SDS011;2062;50.694;7.246;2024-03-23T15:23:02;4.15;;;1.08;;
4096;SDS011;2062;50.694;7.246;2024-03-23T15:25:29;5.03;;;0.85;;
4096;SDS011;2062;50.694;7.246;2024-03-23T15:27:55;4.75;;;1.20;;
4096;SDS011;2062;50.694;7.246;2024-03-23T15:30:22;5.50;;;1.10;;
4096;SDS011;2062;50.694;7.246;2024-03-23T15:32:48;3.90;;;0.88;;
4096;SDS011;2062;50.694;7.246;2024-03-23T15:35:15;4.80;;;0.80;;
4096;SDS011;2062;50.694;7.246;2024-03-23T15:37:41;3.97;;;0.90;;
4096;SDS011;2062;50.694;7.246;2024-03-23T15:40:10;5.35;;;0.93;;
4096;SDS011;2062;50.694;7.246;2024-03-23T15:42:38;4.63;;;0.90;;
4096;SDS011;2062;50.694;7.246;2024-03-23T15:45:06;3.28;;;0.77;;
4096;SDS011;2062;50.694;7.246;2024-03-23T15:47:32;3.00;;;0.60;;
4096;SDS011;2062;50.694;7.246;2024-03-23T15:49:59;3.93;;;0.63;;
4096;SDS011;2062;50.694;7.246;2024-03-23T15:52:25;3.92;;;0.50;;
4096;SDS011;2062;50.694;7.246;2024-03-23T15:54:52;3.28;;;0.60;;
4096;SDS011;2062;50.694;7.246;2024-03-23T15:57:19;2.90;;;0.50;;
4096;SDS011;2062;50.694;7.246;2024-03-23T15:59:46;3.83;;;0.60;;
4096;SDS011;2062;50.694;7.246;2024-03-23T16:02:11;3.17;;;0.65;;
4096;SDS011;2062;50.694;7.246;2024-03-23T16:04:38;3.63;;;0.60;;
4096;SDS011;2062;50.694;7.246;2024-03-23T16:07:04;3.57;;;0.60;;
4096;SDS011;2062;50.694;7.246;2024-03-23T16:09:31;3.53;;;0.50;;
4096;SDS011;2062;50.694;7.246;2024-03-23T16:11:56;4.78;;;0.80;;
4096;SDS011;2062;50.694;7.246;2024-03-23T16:14:24;3.93;;;0.73;;
4096;SDS011;2062;50.694;7.246;2024-03-23T16:16:50;3.72;;;0.55;;